Time;durP1;ratioP1;P1;durP2;ratioP2;P2;SDS_P1;SDS_P2;PMS_P1;PMS_P2;Temp;Humidity;BMP_temperature;BMP_pressure;BME280_temperature;BME280_humidity;BME280_pressure;Samples;Min_cycle;Max_cycle;Signal;HPM_P1;HPM_P2
2022/03/22 00:00:13;;;;;;;17.17;9.30;;;;;;;6.09;62.30;100844.53;5016453;28;20489;-74
2022/03/22 00:02:38;;;;;;;13.95;9.13;;;;;;;6.11;62.79;100837.53;5019248;28;20485;-75
2022/03/22 00:05:04;;;;;;;13.60;7.70;;;;;;;6.09;62.72;100834.09;5016828;28;20216;-73
2022/03/22 00:07:31;;;;;;;11.25;7.75;;;;;;;6.08;62.15;100837.59;5022365;28;20323;-73
2022/03/22 00:09:56;;;;;;;16.43;6.80;;;;;;;6.05;62.38;100844.63;5024175;28;20623;-73
2022/03/22 00:12:22;;;;;;;9.63;7.70;;;;;;;6.02;62.07;100849.94;5020192;28;20677;-72
2022/03/22 00:14:48;;;;;;;12.67;8.17;;;;;;;5.98;62.34;100844.78;5026550;28;20209;-72
2022/03/22 00:17:13;;;;;;;10.13;7.43;;;;;;;5.92;62.59;100847.53;5015856;28;21031;-74
2022/03/22 00:19:38;;;;;;;11.03;7.60;;;;;;;5.86;62.82;100842.47;5017565;28;20205;-75
2022/03/22 00:22:04;;;;;;;14.90;7.67;;;;;;;5.82;62.70;100848.66;5019312;28;20206;-74
2022/03/22 00:24:30;;;;;;;11.30;7.53;;;;;;;5.79;63.10;100840.91;5017246;28;20221;-72
2022/03/22 00:26:56;;;;;;;10.63;7.47;;;;;;;5.77;63.36;100847.91;5017303;28;20210;-74
2022/03/22 00:29:21;;;;;;;13.00;6.90;;;;;;;5.70;63.48;100846.34;5017867;28;20230;-76
2022/03/22 00:31:47;;;;;;;13.20;7.40;;;;;;;5.63;63.96;100850.81;5016397;28;20487;-75
2022/03/22 00:34:13;;;;;;;15.40;8.20;;;;;;;5.54;64.27;100846.69;5018435;28;20240;-72
2022/03/22 00:36:39;;;;;;;10.57;7.13;;;;;;;5.51;64.31;100846.78;5010949;28;20210;-73
2022/03/22 00:39:05;;;;;;;12.40;8.07;;;;;;;5.48;64.42;100840.75;5013743;28;20230;-75
2022/03/22 00:41:30;;;;;;;7.67;6.97;;;;;;;5.47;64.15;100842.50;5019254;28;20324;-74
2022/03/22 00:43:55;;;;;;;15.67;9.17;;;;;;;5.42;64.41;100848.72;5022192;28;20225;-75
2022/03/22 00:46:21;;;;;;;13.47;8.27;;;;;;;5.35;64.66;100842.78;5019812;28;20476;-74
2022/03/22 00:48:47;;;;;;;9.40;7.77;;;;;;;5.29;64.23;100853.34;5016741;28;20749;-75
2022/03/22 00:51:14;;;;;;;9.65;7.15;;;;;;;5.21;64.65;100852.63;5015870;28;20325;-75
2022/03/22 00:53:39;;;;;;;46.75;25.25;;;;;;;5.13;64.24;100851.94;5020872;28;20226;-73
2022/03/22 00:56:06;;;;;;;69.83;36.50;;;;;;;5.06;64.78;100854.69;5022340;28;20206;-74
2022/03/22 00:58:31;;;;;;;23.88;16.83;;;;;;;5.02;64.33;100847.84;5015318;28;20461;-74
2022/03/22 01:00:58;;;;;;;9.75;8.75;;;;;;;5.00;64.62;100859.19;5014148;28;20623;-72
2022/03/22 01:03:23;;;;;;;13.37;7.30;;;;;;;4.97;64.52;100854.91;5020605;28;20232;-74
2022/03/22 01:05:50;;;;;;;15.03;8.33;;;;;;;4.92;64.56;100854.13;5012221;28;20261;-73
2022/03/22 01:08:16;;;;;;;20.33;7.75;;;;;;;4.88;64.85;100855.91;5011274;28;20345;-73
2022/03/22 01:10:45;;;;;;;13.20;8.10;;;;;;;4.85;65.22;100857.72;5020730;28;20216;-73
2022/03/22 01:13:11;;;;;;;9.60;7.40;;;;;;;4.80;65.22;100847.41;5020093;28;20697;-72
2022/03/22 01:15:37;;;;;;;12.10;7.17;;;;;;;4.78;65.27;100854.41;5015182;28;20275;-72
2022/03/22 01:18:08;;;;;;;11.43;6.97;;;;;;;4.73;65.50;100851.03;5014020;28;20226;-75
2022/03/22 01:20:36;;;;;;;10.65;7.70;;;;;;;4.66;65.93;100847.69;5015523;28;20205;-72
2022/03/22 01:23:03;;;;;;;12.05;6.82;;;;;;;4.61;66.16;100849.50;5011567;28;20229;-73
2022/03/22 01:25:30;;;;;;;11.10;7.85;;;;;;;4.60;66.20;100850.41;5018697;28;20220;-72
2022/03/22 01:27:56;;;;;;;10.60;8.63;;;;;;;4.59;66.54;100840.91;5019661;28;21306;-74
2022/03/22 01:30:23;;;;;;;8.98;8.05;;;;;;;4.55;66.81;100844.44;5016190;28;20201;-74
2022/03/22 01:32:50;;;;;;;13.10;10.02;;;;;;;4.57;66.97;100850.47;5015126;28;20485;-75
2022/03/22 01:35:17;;;;;;;16.27;9.15;;;;;;;4.56;67.40;100843.53;5015135;28;20213;-72
2022/03/22 01:37:44;;;;;;;13.50;8.02;;;;;;;4.57;67.09;100845.25;5015233;28;21161;-75
2022/03/22 01:40:10;;;;;;;12.73;7.38;;;;;;;4.57;66.97;100853.06;5016913;28;20687;-73
2022/03/22 01:42:36;;;;;;;9.80;6.60;;;;;;;4.52;66.98;100852.31;5017523;28;20663;-74
2022/03/22 01:45:03;;;;;;;10.60;7.50;;;;;;;4.48;67.04;100852.38;5015843;28;20209;-72
2022/03/22 01:47:29;;;;;;;11.18;8.23;;;;;;;4.41;67.54;100843.84;5017760;28;20489;-72
2022/03/22 01:49:54;;;;;;;14.60;7.53;;;;;;;4.31;67.54;100847.50;5025477;28;20221;-74
2022/03/22 01:52:23;;;;;;;9.33;6.60;;;;;;;4.19;67.88;100853.78;5019020;28;20455;-74
2022/03/22 01:54:50;;;;;;;12.35;8.20;;;;;;;4.12;67.85;100853.00;5013789;28;20468;-72
2022/03/22 01:57:17;;;;;;;10.65;7.13;;;;;;;4.13;68.03;100859.06;5015368;28;20261;-75
2022/03/22 01:59:44;;;;;;;14.07;8.23;;;;;;;4.11;67.82;100855.66;5016329;28;20289;-72
2022/03/22 02:07:41;;;;;;;10.35;7.82;;;;;;;4.09;67.93;100853.06;5011740;28;20287;-72
2022/03/22 02:10:07;;;;;;;10.07;7.45;;;;;;;4.10;67.85;100849.56;5019346;28;20210;-73
2022/03/22 02:12:33;;;;;;;13.07;8.15;;;;;;;4.13;67.73;100843.47;5013291;28;20209;-75
2022/03/22 02:14:58;;;;;;;11.77;7.50;;;;;;;4.07;67.71;100847.03;5014554;28;20202;-72
2022/03/22 02:17:24;;;;;;;10.63;7.10;;;;;;;4.01;67.58;100846.28;5023721;28;20209;-75
2022/03/22 02:19:50;;;;;;;12.25;6.78;;;;;;;3.97;67.75;100842.88;5017316;28;20202;-74
2022/03/22 02:22:17;;;;;;;9.97;7.37;;;;;;;3.94;67.91;100849.00;5017182;28;20233;-73
2022/03/22 02:24:43;;;;;;;9.60;7.35;;;;;;;3.93;67.88;100849.84;5014849;28;20230;-73
2022/03/22 02:27:09;;;;;;;12.53;8.03;;;;;;;3.91;68.13;100846.41;5018635;28;20221;-73
2022/03/22 02:29:35;;;;;;;11.73;7.20;;;;;;;3.87;68.26;100857.75;5017916;28;20465;-74
2022/03/22 02:32:07;;;;;;;15.02;8.27;;;;;;;3.89;68.26;100855.13;5012830;28;20481;-74
2022/03/22 02:34:35;;;;;;;15.48;8.93;;;;;;;3.90;68.40;100856.84;5019323;28;20241;-75
2022/03/22 02:37:01;;;;;;;12.05;7.55;;;;;;;3.85;68.52;100851.72;5012929;28;20194;-73
2022/03/22 02:39:26;;;;;;;11.90;8.70;;;;;;;3.85;68.30;100854.31;5015477;28;21302;-75
2022/03/22 02:41:53;;;;;;;12.10;7.40;;;;;;;3.83;68.25;100850.88;5016539;28;20209;-74
2022/03/22 02:44:19;;;;;;;11.43;8.10;;;;;;;3.79;68.29;100854.44;5016778;28;20230;-75
2022/03/22 02:46:45;;;;;;;9.70;6.75;;;;;;;3.67;68.50;100842.50;5010779;28;20210;-72
2022/03/22 02:49:12;;;;;;;12.50;7.93;;;;;;;3.64;68.63;100850.31;5016149;28;20226;-74
2022/03/22 02:51:37;;;;;;;12.48;8.57;;;;;;;3.64;68.89;100852.91;5019271;28;20217;-74
2022/03/22 02:54:03;;;;;;;14.33;7.33;;;;;;;3.61;68.70;100850.38;5016363;28;20234;-75
2022/03/22 02:56:28;;;;;;;13.63;8.63;;;;;;;3.60;68.70;100851.25;5018641;28;20206;-72
2022/03/22 02:58:53;;;;;;;13.33;8.37;;;;;;;3.58;68.68;100852.16;5014298;28;20210;-73
2022/03/22 03:01:19;;;;;;;11.90;8.07;;;;;;;3.52;68.66;100856.56;5018213;28;20477;-74
2022/03/22 03:03:44;;;;;;;14.40;8.70;;;;;;;3.44;69.53;100860.16;5017701;28;20228;-72
2022/03/22 03:06:09;;;;;;;12.33;8.83;;;;;;;3.37;69.52;100866.31;5015193;28;20202;-72
2022/03/22 03:08:35;;;;;;;12.27;8.63;;;;;;;3.35;69.47;100862.88;5016339;28;20703;-74
2022/03/22 03:11:00;;;;;;;15.83;8.13;;;;;;;3.29;69.42;100869.88;5018582;28;20212;-73
2022/03/22 03:14:38;;;;;;;10.47;7.80;;;;;;;3.23;70.02;100859.56;5017982;28;20236;-74
2022/03/22 03:16:12;;;;;;;10.02;7.43;;;;;;;3.17;70.07;100864.84;5017962;28;20210;-74
2022/03/22 03:18:37;;;;;;;13.53;7.13;;;;;;;3.13;70.18;100864.88;5014703;28;20213;-72
2022/03/22 03:21:02;;;;;;;14.97;7.03;;;;;;;3.16;70.07;100875.22;5017790;28;20472;-75
2022/03/22 03:23:28;;;;;;;8.47;6.63;;;;;;;3.20;69.86;100875.19;5012855;28;20376;-73
2022/03/22 03:25:53;;;;;;;8.97;8.07;;;;;;;3.23;69.76;100875.13;5015777;28;20213;-75
2022/03/22 03:28:18;;;;;;;12.60;8.70;;;;;;;3.27;69.46;100876.84;5015707;28;20905;-72
2022/03/22 03:30:45;;;;;;;12.25;7.93;;;;;;;3.29;69.31;100875.09;5016759;28;20198;-74
2022/03/22 03:33:11;;;;;;;12.93;9.90;;;;;;;3.34;70.04;100882.78;5011582;28;20481;-75
2022/03/22 03:35:36;;;;;;;12.10;8.33;;;;;;;3.33;70.06;100881.09;5014142;28;20206;-75
2022/03/22 03:38:02;;;;;;;11.17;7.87;;;;;;;3.20;70.28;100882.97;5018779;28;20213;-73
2022/03/22 03:41:53;;;;;;;13.27;7.33;;;;;;;3.06;70.33;100877.97;5019520;28;20212;-72
2022/03/22 03:43:12;;;;;;;13.57;7.78;;;;;;;2.90;70.78;100878.16;5015758;28;20245;-75
2022/03/22 03:48:22;;;;;;;10.63;6.40;;;;;;;2.69;71.48;100887.03;5015922;28;20276;-76
2022/03/22 03:50:47;;;;;;;13.47;7.50;;;;;;;2.70;71.00;100892.22;5022001;28;20296;-73
2022/03/22 03:53:13;;;;;;;11.07;7.40;;;;;;;2.73;70.96;100893.91;5019551;28;20241;-74
2022/03/22 03:55:38;;;;;;;13.20;6.70;;;;;;;2.74;71.02;100890.44;5016228;28;20209;-74
2022/03/22 03:58:03;;;;;;;10.13;7.07;;;;;;;2.77;70.65;100903.38;5017497;28;20236;-74
2022/03/22 04:00:29;;;;;;;13.20;8.80;;;;;;;2.77;70.92;100904.25;5019073;28;21188;-73
2022/03/22 04:02:54;;;;;;;8.83;7.53;;;;;;;2.72;71.04;100902.56;5018449;28;20237;-75
2022/03/22 04:05:20;;;;;;;15.17;7.63;;;;;;;2.67;71.04;100913.00;5017444;28;20383;-75
2022/03/22 04:07:45;;;;;;;9.67;8.10;;;;;;;2.65;71.05;100910.44;5016675;28;20678;-75
2022/03/22 04:10:10;;;;;;;17.70;8.27;;;;;;;2.66;71.17;100903.50;5017227;28;20722;-75
2022/03/22 04:12:41;;;;;;;11.67;7.37;;;;;;;2.65;71.05;100914.75;5020445;28;20206;-75
2022/03/22 04:15:07;;;;;;;14.10;8.20;;;;;;;2.64;71.09;100906.09;5018128;28;20214;-75
2022/03/22 04:17:34;;;;;;;10.55;7.10;;;;;;;2.59;70.77;100915.69;5017564;28;20559;-73
2022/03/22 04:20:00;;;;;;;11.55;8.48;;;;;;;2.57;71.15;100919.16;5020884;28;20202;-72
2022/03/22 04:22:25;;;;;;;9.60;7.60;;;;;;;2.56;71.30;100914.84;5018925;28;20229;-74
2022/03/22 04:24:51;;;;;;;9.83;8.23;;;;;;;2.55;71.43;100923.50;5018351;28;20210;-75
2022/03/22 04:32:44;;;;;;;13.85;10.68;;;;;;;2.56;71.30;100920.88;5015749;28;20492;-74
2022/03/22 04:35:12;;;;;;;13.37;11.13;;;;;;;2.51;71.52;100922.69;5009509;28;20194;-71
2022/03/22 04:37:38;;;;;;;11.85;9.40;;;;;;;2.50;71.32;100922.69;5012136;28;20218;-73
2022/03/22 04:40:04;;;;;;;12.02;8.80;;;;;;;2.47;71.62;100922.72;5008199;28;21042;-74
2022/03/22 04:42:29;;;;;;;12.20;9.00;;;;;;;2.48;71.32;100929.63;5003332;28;20210;-72
2022/03/22 04:44:55;;;;;;;11.50;7.60;;;;;;;2.50;71.48;100931.31;5009867;28;21665;-71
2022/03/22 04:47:21;;;;;;;14.47;8.70;;;;;;;2.51;71.09;100929.56;5020905;28;20805;-74
2022/03/22 04:49:46;;;;;;;9.43;7.87;;;;;;;2.47;71.06;100933.09;5020104;28;20202;-72
2022/03/22 04:57:39;;;;;;;14.65;9.13;;;;;;;2.37;71.14;100930.56;5018258;28;20221;-74
2022/03/22 05:00:08;;;;;;;10.43;7.70;;;;;;;2.38;70.86;100926.25;5018299;28;20197;-71
2022/03/22 05:02:33;;;;;;;15.05;9.88;;;;;;;2.36;71.31;100934.03;5021530;28;21270;-75
2022/03/22 05:05:00;;;;;;;15.03;9.70;;;;;;;2.34;71.82;100943.56;5024388;28;20206;-72
2022/03/22 05:07:26;;;;;;;11.73;10.13;;;;;;;2.33;71.76;100936.66;5022603;28;20225;-73
2022/03/22 05:09:51;;;;;;;11.38;8.57;;;;;;;2.32;71.50;100934.97;5024341;28;20212;-74
2022/03/22 05:12:17;;;;;;;11.30;9.27;;;;;;;2.30;71.50;100936.69;5017255;28;20202;-73
2022/03/22 05:14:43;;;;;;;14.20;9.30;;;;;;;2.29;71.72;100940.13;5017761;28;20280;-72
2022/03/22 05:17:11;;;;;;;15.40;10.33;;;;;;;2.30;71.50;100941.88;5021968;28;20553;-76
2022/03/22 05:19:38;;;;;;;9.13;7.25;;;;;;;2.29;71.34;100945.31;5016231;28;20692;-72
2022/03/22 05:22:04;;;;;;;12.75;8.65;;;;;;;2.25;71.49;100940.19;5019817;28;20326;-75
2022/03/22 05:24:30;;;;;;;13.43;8.70;;;;;;;2.23;71.34;100945.38;5020978;28;20292;-70
2022/03/22 05:26:55;;;;;;;18.07;11.80;;;;;;;2.22;71.65;100948.88;5019125;28;20210;-72
2022/03/22 05:29:21;;;;;;;16.83;8.60;;;;;;;2.15;71.81;100950.63;5020556;28;20206;-73
2022/03/22 05:31:47;;;;;;;11.10;8.38;;;;;;;2.03;71.64;100953.31;5017057;28;20303;-73
2022/03/22 05:34:12;;;;;;;18.17;8.07;;;;;;;1.91;71.87;100967.19;5020157;28;20233;-72
2022/03/22 05:36:38;;;;;;;13.00;8.20;;;;;;;1.81;72.24;100967.25;4672688;28;10001021;-75
2022/03/22 05:39:04;;;;;;;8.80;7.30;;;;;;;1.72;72.32;100965.59;5022545;28;20230;-75
2022/03/22 05:41:29;;;;;;;12.93;7.67;;;;;;;1.72;72.50;100965.59;5015026;28;20205;-74
2022/03/22 05:43:54;;;;;;;12.00;8.30;;;;;;;1.78;72.21;100965.53;5023774;28;20726;-75
2022/03/22 05:46:20;;;;;;;12.17;7.00;;;;;;;1.81;72.09;100962.97;5016900;28;20225;-73
2022/03/22 05:48:49;;;;;;;12.55;7.13;;;;;;;1.86;71.96;100968.09;5014967;28;20242;-74
2022/03/22 05:51:17;;;;;;;15.13;8.25;;;;;;;1.87;72.28;100969.84;5016281;28;20671;-73
2022/03/22 05:53:44;;;;;;;10.95;8.70;;;;;;;1.91;72.14;100972.38;5014888;28;20560;-75
2022/03/22 05:56:10;;;;;;;16.23;9.25;;;;;;;1.92;72.10;100976.72;5017795;28;20197;-74
2022/03/22 05:58:36;;;;;;;11.00;7.70;;;;;;;1.95;71.98;100976.69;5038804;28;20222;-74
2022/03/22 06:01:01;;;;;;;11.57;8.40;;;;;;;1.97;71.92;100977.56;5017412;28;20686;-73
2022/03/22 06:03:27;;;;;;;13.60;9.23;;;;;;;1.98;71.77;100981.84;5026171;28;20279;-73
2022/03/22 06:05:52;;;;;;;18.80;8.20;;;;;;;1.98;71.83;100984.44;5024911;28;20464;-75
2022/03/22 06:08:19;;;;;;;14.00;8.20;;;;;;;1.94;71.97;100989.63;5018694;28;20205;-75
2022/03/22 06:10:45;;;;;;;13.57;8.00;;;;;;;1.88;72.36;101000.06;5023183;28;20198;-74
2022/03/22 06:13:11;;;;;;;12.47;8.80;;;;;;;1.84;72.54;100988.84;5019839;28;20226;-74
2022/03/22 06:15:37;;;;;;;17.50;7.77;;;;;;;1.88;72.47;100993.13;5018291;28;20468;-73
2022/03/22 06:18:05;;;;;;;13.52;8.93;;;;;;;1.98;71.88;100991.34;5016828;28;20256;-75
2022/03/22 06:20:39;;;;;;;15.20;8.50;;;;;;;2.11;71.55;100987.81;5020946;28;21129;-73
2022/03/22 06:23:07;;;;;;;11.75;8.18;;;;;;;2.24;71.53;100988.56;5016591;28;20222;-73
2022/03/22 06:25:34;;;;;;;9.95;7.65;;;;;;;2.35;71.47;100989.38;5014594;28;20202;-74
2022/03/22 06:28:00;;;;;;;11.70;8.57;;;;;;;2.43;71.04;100995.38;5016596;28;20213;-75
2022/03/22 06:30:26;;;;;;;10.60;7.50;;;;;;;2.55;70.51;100993.53;5019615;28;20202;-76
2022/03/22 06:32:54;;;;;;;10.93;9.02;;;;;;;2.68;70.23;101000.34;5023839;28;21091;-75
2022/03/22 06:35:28;;;;;;;15.23;8.77;;;;;;;2.80;70.30;100997.63;5021802;28;20206;-76
2022/03/22 06:37:55;;;;;;;15.35;8.65;;;;;;;2.90;69.73;100994.94;5030312;28;20773;-73
2022/03/22 06:40:22;;;;;;;15.32;9.13;;;;;;;3.00;69.52;101002.63;5034325;28;20263;-75
2022/03/22 06:42:49;;;;;;;12.73;8.65;;;;;;;3.12;69.27;101005.97;5026189;28;20755;-75
2022/03/22 06:45:15;;;;;;;19.92;11.60;;;;;;;3.22;68.99;101015.38;5022428;28;20205;-72
2022/03/22 06:47:42;;;;;;;27.15;14.75;;;;;;;3.32;68.75;101004.88;5020302;28;20230;-73
2022/03/22 06:50:10;;;;;;;28.02;17.38;;;;;;;3.46;68.19;101011.66;5019457;28;20918;-75
2022/03/22 06:52:35;;;;;;;27.25;12.90;;;;;;;3.59;67.85;101013.19;5026341;28;20320;-72
2022/03/22 06:55:02;;;;;;;44.67;20.93;;;;;;;3.71;67.61;101007.84;5021433;28;20306;-73
2022/03/22 06:57:29;;;;;;;17.50;11.00;;;;;;;3.84;67.30;101015.50;5019356;28;20460;-73
2022/03/22 07:00:01;;;;;;;23.65;13.25;;;;;;;3.94;66.68;101004.97;5021432;28;20210;-75
2022/03/22 07:02:27;;;;;;;26.70;16.92;;;;;;;4.08;66.19;101014.28;5022821;28;20507;-74
2022/03/22 07:04:52;;;;;;;22.60;13.20;;;;;;;4.18;66.24;101021.94;5026457;28;20257;-73
2022/03/22 07:07:18;;;;;;;27.60;15.53;;;;;;;4.32;65.64;101015.66;5020019;28;20793;-73
2022/03/22 07:09:44;;;;;;;19.52;13.07;;;;;;;4.46;65.29;101018.06;5019661;28;20210;-74
2022/03/22 07:12:10;;;;;;;17.00;11.90;;;;;;;4.61;64.79;101020.41;5027265;28;20864;-72
2022/03/22 07:14:38;;;;;;;19.10;13.43;;;;;;;4.74;64.37;101015.88;5029052;28;20537;-75
2022/03/22 07:17:05;;;;;;;23.05;12.63;;;;;;;4.89;63.94;101013.00;5022008;28;20234;-72
2022/03/22 07:19:30;;;;;;;16.42;11.48;;;;;;;5.03;63.60;101013.59;5021130;28;20218;-74
2022/03/22 07:21:57;;;;;;;27.40;14.57;;;;;;;5.20;63.53;101017.66;5026277;28;20205;-74
2022/03/22 07:24:23;;;;;;;17.55;12.50;;;;;;;5.33;63.05;101013.91;5023111;28;20205;-74
2022/03/22 07:26:48;;;;;;;17.37;12.27;;;;;;;5.47;63.10;101021.47;5026628;28;20212;-77
2022/03/22 07:29:14;;;;;;;22.50;13.43;;;;;;;5.60;63.12;101016.88;5022071;28;20289;-80
2022/03/22 07:31:41;;;;;;;17.10;12.50;;;;;;;5.66;63.02;101019.34;5024958;28;20292;-78
2022/03/22 07:34:12;;;;;;;18.13;13.90;;;;;;;5.72;63.19;101019.19;5024125;28;20547;-78
2022/03/22 07:36:41;;;;;;;22.40;13.15;;;;;;;5.81;62.87;101021.63;5021465;28;20253;-76
2022/03/22 07:39:07;;;;;;;20.88;14.68;;;;;;;5.90;62.75;101018.81;5024840;28;20451;-77
2022/03/22 07:41:34;;;;;;;21.25;13.82;;;;;;;6.03;62.70;101018.59;5024186;28;20259;-75
2022/03/22 07:44:01;;;;;;;21.08;13.65;;;;;;;6.12;62.59;101020.97;5025352;28;20229;-79
2022/03/22 07:46:27;;;;;;;18.52;14.05;;;;;;;6.19;62.39;101022.56;5024519;28;20202;-76
2022/03/22 07:48:53;;;;;;;22.42;14.40;;;;;;;6.27;62.33;101017.19;5025851;28;20249;-75
2022/03/22 07:54:03;;;;;;;21.60;14.57;;;;;;;6.57;61.76;101023.41;5023765;28;20475;-77
2022/03/22 07:56:32;;;;;;;19.23;13.27;;;;;;;6.70;61.26;101019.63;5023958;28;20205;-79
2022/03/22 07:58:58;;;;;;;20.52;13.55;;;;;;;7.06;60.91;101017.78;5022894;28;20499;-77
2022/03/22 08:01:24;;;;;;;23.47;15.67;;;;;;;7.81;59.08;101012.22;5024758;28;20476;-76
2022/03/22 08:03:53;;;;;;;21.92;14.02;;;;;;;8.80;56.68;101021.34;5021842;28;20476;-74
2022/03/22 08:06:18;;;;;;;19.98;13.02;;;;;;;9.65;53.92;101005.22;5022059;28;20214;-80
2022/03/22 08:08:45;;;;;;;30.87;15.57;;;;;;;10.40;52.30;100999.72;5023058;28;20214;-78
2022/03/22 08:11:11;;;;;;;20.33;15.05;;;;;;;11.25;50.00;100999.59;5023090;28;20198;-74
2022/03/22 08:13:38;;;;;;;21.83;14.05;;;;;;;11.80;47.88;101005.00;5022369;28;20218;-80
2022/03/22 08:16:06;;;;;;;21.60;14.45;;;;;;;11.93;46.86;101000.03;5026159;28;20260;-76
2022/03/22 08:18:32;;;;;;;22.33;15.80;;;;;;;12.20;46.51;101004.94;5024494;28;20226;-78
2022/03/22 08:20:58;;;;;;;21.33;15.60;;;;;;;12.74;45.24;101000.50;5021942;28;20217;-75
2022/03/22 08:23:23;;;;;;;20.40;14.30;;;;;;;13.27;44.11;100991.66;5023535;28;20225;-76
2022/03/22 08:25:51;;;;;;;25.00;16.20;;;;;;;13.83;42.77;100987.75;5011127;28;20297;-80
2022/03/22 08:28:18;;;;;;;21.67;13.43;;;;;;;14.11;41.52;100987.03;5009591;28;20359;-79
2022/03/22 08:30:44;;;;;;;17.50;14.07;;;;;;;13.96;41.52;100982.66;5018541;28;20190;-77
2022/03/22 08:33:11;;;;;;;21.10;15.73;;;;;;;13.99;41.01;100986.88;5012324;28;20329;-79
2022/03/22 08:35:41;;;;;;;16.52;13.45;;;;;;;14.30;40.60;100986.84;5015343;28;20205;-79
2022/03/22 08:38:07;;;;;;;18.75;13.55;;;;;;;14.62;39.67;100975.41;5017056;28;20239;-78
2022/03/22 08:40:33;;;;;;;21.92;14.40;;;;;;;14.96;39.29;100974.22;5015622;28;20233;-76
2022/03/22 08:42:58;;;;;;;17.23;14.23;;;;;;;14.83;39.50;100974.97;5016175;28;20261;-77
2022/03/22 08:45:27;;;;;;;23.20;15.70;;;;;;;14.77;39.32;100974.47;5012660;28;20209;-75
2022/03/22 08:47:54;;;;;;;20.73;15.85;;;;;;;14.84;39.15;100970.53;5016090;28;21103;-79
2022/03/22 08:50:22;;;;;;;24.25;16.42;;;;;;;15.01;38.62;100973.03;5013712;28;20306;-79
2022/03/22 08:52:48;;;;;;;21.40;15.80;;;;;;;15.16;38.32;100973.03;5012089;28;20561;-79
2022/03/22 08:55:16;;;;;;;21.05;15.98;;;;;;;15.40;38.05;100968.03;5013047;28;20737;-80
2022/03/22 08:57:44;;;;;;;21.02;15.48;;;;;;;15.55;37.35;100971.50;5011395;28;20244;-79
2022/03/22 09:00:11;;;;;;;21.15;15.15;;;;;;;15.56;37.22;100967.94;5010660;28;20213;-79
2022/03/22 09:02:42;;;;;;;17.70;13.90;;;;;;;15.95;36.17;100964.56;5015470;28;20194;-78
2022/03/22 09:07:58;;;;;;;24.65;16.25;;;;;;;15.90;36.11;100950.75;5009333;28;20210;-73
2022/03/22 09:10:25;;;;;;;22.23;14.98;;;;;;;15.67;36.60;100954.84;5009144;28;20213;-73
2022/03/22 09:12:50;;;;;;;23.48;16.42;;;;;;;15.53;36.89;100957.50;5012518;28;20226;-73
2022/03/22 09:15:20;;;;;;;22.73;14.43;;;;;;;15.50;37.13;100953.28;5014155;28;20203;-73
2022/03/22 09:17:46;;;;;;;24.20;15.75;;;;;;;15.42;37.14;100959.06;5010803;28;20200;-73
2022/03/22 09:20:13;;;;;;;19.80;15.57;;;;;;;15.42;37.19;100959.06;5008238;28;20305;-73
2022/03/22 09:22:43;;;;;;;20.75;15.65;;;;;;;15.18;37.47;100964.06;5008786;28;20206;-73
2022/03/22 09:25:12;;;;;;;22.45;15.05;;;;;;;15.16;37.58;100959.81;5008758;28;20205;-74
2022/03/22 09:27:41;;;;;;;23.27;16.00;;;;;;;15.22;37.13;100954.97;5008285;28;20232;-74
2022/03/22 09:30:07;;;;;;;26.10;17.80;;;;;;;15.29;37.10;100949.31;5009615;28;20491;-72
2022/03/22 09:32:34;;;;;;;18.88;15.02;;;;;;;15.27;37.10;100949.41;5007495;28;20202;-72
2022/03/22 09:34:59;;;;;;;27.13;18.42;;;;;;;15.29;36.96;100946.69;5010683;28;20202;-72
2022/03/22 09:37:27;;;;;;;19.43;14.10;;;;;;;15.10;37.33;100947.81;5010397;28;21049;-74
2022/03/22 09:39:53;;;;;;;22.02;15.00;;;;;;;15.03;37.81;100949.13;5010274;28;20226;-75
2022/03/22 09:42:19;;;;;;;17.17;13.95;;;;;;;14.85;38.01;100950.22;5012510;28;20206;-72
2022/03/22 09:44:49;;;;;;;29.03;15.20;;;;;;;14.68;38.21;100944.16;5012899;28;20279;-74
2022/03/22 09:47:15;;;;;;;26.27;16.17;;;;;;;14.63;38.43;100945.34;5010291;28;21395;-74
2022/03/22 09:49:42;;;;;;;17.43;14.07;;;;;;;14.60;38.39;100946.38;5012397;28;20202;-72
2022/03/22 09:52:09;;;;;;;19.92;14.50;;;;;;;14.53;38.39;100945.06;4488539;28;10000063;-73
2022/03/22 09:54:35;;;;;;;18.20;13.90;;;;;;;14.36;38.78;100944.19;5015734;28;20229;-73
2022/03/22 09:57:04;;;;;;;21.67;12.95;;;;;;;14.50;38.56;100937.25;5017162;28;20205;-72
2022/03/22 09:59:32;;;;;;;21.25;13.10;;;;;;;14.75;37.97;100945.50;5012824;28;20203;-75
2022/03/22 10:02:03;;;;;;;25.27;15.50;;;;;;;14.93;37.45;100932.97;5013676;28;20570;-73
2022/03/22 10:04:40;;;;;;;17.95;13.00;;;;;;;14.97;37.18;100937.09;5014206;28;20652;-72
2022/03/22 10:07:07;;;;;;;18.30;12.45;;;;;;;15.02;36.90;100928.91;5019826;28;20230;-73
2022/03/22 10:09:39;;;;;;;14.82;11.15;;;;;;;15.10;36.86;100924.00;5020539;28;20202;-75
2022/03/22 10:12:07;;;;;;;15.98;14.05;;;;;;;15.07;36.57;100924.19;5020144;28;20383;-73
2022/03/22 10:14:38;;;;;;;17.75;13.75;;;;;;;14.97;36.30;100923.03;5015986;28;20222;-71
2022/03/22 10:17:14;;;;;;;17.27;12.45;;;;;;;14.88;36.46;100918.28;5018415;28;20198;-72
2022/03/22 10:19:42;;;;;;;17.80;13.93;;;;;;;14.93;36.44;100917.09;5021151;28;20335;-73
2022/03/22 10:22:10;;;;;;;24.20;14.00;;;;;;;14.96;36.38;100916.91;5015470;28;20264;-73
2022/03/22 10:24:47;;;;;;;17.33;13.18;;;;;;;14.88;35.94;100915.63;5019401;28;20711;-73
2022/03/22 10:27:32;;;;;;;21.88;14.23;;;;;;;14.74;36.23;100906.78;5016052;28;20249;-71
2022/03/22 10:29:58;;;;;;;19.20;15.43;;;;;;;14.81;36.29;100916.00;5017035;28;20210;-72
2022/03/22 10:32:32;;;;;;;16.45;13.25;;;;;;;14.82;36.48;100914.22;5017788;28;20806;-74
2022/03/22 10:35:25;;;;;;;16.73;11.70;;;;;;;14.78;36.16;100910.91;5017635;28;20246;-72
2022/03/22 10:37:56;;;;;;;20.50;14.00;;;;;;;14.86;36.35;100904.31;5018397;28;20296;-70
2022/03/22 10:40:40;;;;;;;21.00;13.52;;;;;;;14.83;36.71;100903.56;5019656;28;20206;-72
2022/03/22 10:43:20;;;;;;;18.67;12.57;;;;;;;14.73;37.22;100905.06;5019835;28;20226;-73
2022/03/22 10:45:56;;;;;;;17.33;14.48;;;;;;;14.74;37.23;100900.59;5016496;28;20209;-73
2022/03/22 10:48:24;;;;;;;21.77;14.27;;;;;;;14.70;37.56;100905.25;5016959;28;20352;-74
2022/03/22 10:50:51;;;;;;;19.90;14.10;;;;;;;14.73;37.43;100898.91;5013617;28;20836;-72
2022/03/22 10:53:18;;;;;;;19.20;12.82;;;;;;;14.81;36.89;100902.78;5014037;28;20226;-71
2022/03/22 10:55:48;;;;;;;17.73;13.65;;;;;;;14.80;36.89;100898.47;5018386;28;20341;-73
2022/03/22 10:58:18;;;;;;;19.10;13.63;;;;;;;14.87;37.28;100898.06;5018130;28;20239;-74
2022/03/22 11:00:46;;;;;;;18.80;14.07;;;;;;;14.84;37.26;100904.41;5012006;28;20278;-74
2022/03/22 11:03:13;;;;;;;19.75;13.93;;;;;;;14.83;37.09;100898.25;5013417;28;20257;-75
2022/03/22 11:05:40;;;;;;;14.45;12.48;;;;;;;14.82;36.86;100904.50;5015540;28;20206;-74
2022/03/22 11:08:06;;;;;;;18.50;12.07;;;;;;;14.88;36.72;100894.47;5012884;28;20546;-73
2022/03/22 11:10:32;;;;;;;19.97;14.37;;;;;;;14.91;36.81;100891.66;5017747;28;20268;-74
2022/03/22 11:12:59;;;;;;;23.17;15.10;;;;;;;14.95;37.02;100893.16;5014854;28;20253;-75
2022/03/22 11:15:30;;;;;;;17.88;13.32;;;;;;;14.90;36.90;100889.94;5015393;28;20214;-73
2022/03/22 11:17:57;;;;;;;17.60;13.38;;;;;;;14.91;36.89;100884.56;5016190;28;20218;-72
2022/03/22 11:20:24;;;;;;;18.17;13.40;;;;;;;14.85;36.88;100890.22;5014144;28;20194;-73
2022/03/22 11:22:55;;;;;;;16.25;13.32;;;;;;;14.84;36.92;100875.31;5013360;28;20223;-73
2022/03/22 11:25:31;;;;;;;19.08;13.23;;;;;;;14.95;36.54;100880.78;5015814;28;20691;-74
2022/03/22 11:28:05;;;;;;;15.00;12.45;;;;;;;14.99;36.29;100877.00;5031468;28;20602;-72
2022/03/22 11:30:31;;;;;;;17.17;13.70;;;;;;;15.00;36.36;100876.06;5016064;28;20198;-73
2022/03/22 11:36:11;;;;;;;16.02;11.88;;;;;;;15.07;36.98;100867.72;5014809;28;20222;-75
2022/03/22 11:38:54;;;;;;;19.20;13.70;;;;;;;15.03;36.86;100859.16;4999584;28;20266;-72
2022/03/22 11:44:27;;;;;;;21.10;13.00;;;;;;;15.13;36.83;100851.50;5019073;28;20223;-73
2022/03/22 11:47:19;;;;;;;18.35;12.15;;;;;;;15.12;36.54;100844.47;5018383;28;20213;-74
2022/03/22 11:49:57;;;;;;;18.27;12.77;;;;;;;15.16;36.39;100844.19;5017334;28;20225;-74